createdAt,value
2022-12-27T00:01:21.722Z,1.10
2022-12-27T00:06:27.329Z,1.23
2022-12-27T00:11:31.059Z,2.13
2022-12-27T00:16:34.630Z,2.33
2022-12-27T00:21:38.909Z,3.03
2022-12-27T00:26:42.131Z,1.80
2022-12-27T00:31:45.387Z,1.13
2022-12-27T00:36:49.711Z,1.67
2022-12-27T00:41:52.672Z,2.97
2022-12-27T00:46:55.618Z,2.77
2022-12-27T00:51:59.937Z,1.47
2022-12-27T00:57:02.914Z,2.80
2022-12-27T01:02:06.008Z,1.50
2022-12-27T01:07:10.349Z,1.37
2022-12-27T01:12:13.265Z,1.40
2022-12-27T01:17:16.586Z,1.70
2022-12-27T01:22:20.959Z,2.27
2022-12-27T01:27:23.919Z,1.33
2022-12-27T01:32:26.908Z,1.00
2022-12-27T01:37:31.539Z,1.50
2022-12-27T01:42:51.881Z,1.53
2022-12-27T01:47:58.347Z,1.33
2022-12-27T01:53:08.422Z,2.00
2022-12-27T01:58:14.878Z,1.33
2022-12-27T02:03:21.398Z,1.90
2022-12-27T02:08:37.990Z,1.10
2022-12-27T02:13:43.221Z,0.97
2022-12-27T02:18:46.779Z,1.27
2022-12-27T02:24:13.975Z,1.60
2022-12-27T02:29:44.926Z,2.30
2022-12-27T02:34:55.319Z,1.30
2022-12-27T02:40:19.681Z,1.67
2022-12-27T02:45:44.544Z,1.00
2022-12-27T02:51:15.082Z,1.37
2022-12-27T02:56:43.758Z,1.43
2022-12-27T03:02:11.732Z,1.10
2022-12-27T03:07:27.414Z,1.97
2022-12-27T03:13:01.144Z,1.70
2022-12-27T03:18:09.717Z,1.83
2022-12-27T03:23:30.676Z,1.63
2022-12-27T03:28:51.634Z,1.60
2022-12-27T03:34:19.444Z,1.33
2022-12-27T03:39:28.828Z,2.40
2022-12-27T03:44:31.986Z,4.27
2022-12-27T03:49:39.261Z,1.37
2022-12-27T03:54:44.009Z,1.77
2022-12-27T03:59:47.203Z,1.10
2022-12-27T04:04:51.679Z,2.23
2022-12-27T04:10:11.907Z,2.07
2022-12-27T04:15:32.775Z,1.30
2022-12-27T04:20:54.387Z,1.50
2022-12-27T04:26:15.219Z,1.70
2022-12-27T04:31:36.158Z,2.00
2022-12-27T04:36:40.737Z,1.07
2022-12-27T04:42:00.875Z,1.17
2022-12-27T04:47:21.376Z,1.23
2022-12-27T04:52:43.438Z,2.47
2022-12-27T04:57:46.584Z,1.40
2022-12-27T05:02:49.879Z,1.43
2022-12-27T05:08:12.238Z,2.23
2022-12-27T05:13:32.711Z,1.30
2022-12-27T05:18:35.630Z,1.87
2022-12-27T05:24:04.919Z,3.07
2022-12-27T05:29:09.131Z,1.20
2022-12-27T05:34:12.081Z,3.40
2022-12-27T05:39:16.462Z,1.43
2022-12-27T05:44:19.458Z,2.87
2022-12-27T05:49:22.379Z,1.47
2022-12-27T05:54:26.798Z,1.03
2022-12-27T05:59:29.646Z,1.53
2022-12-27T06:04:32.584Z,1.83
2022-12-27T06:09:36.944Z,2.60
2022-12-27T06:14:41.340Z,1.63
2022-12-27T06:19:44.262Z,1.43
2022-12-27T06:24:48.656Z,1.50
2022-12-27T06:29:51.567Z,4.07
2022-12-27T06:34:54.531Z,1.87
2022-12-27T06:39:58.867Z,1.60
2022-12-27T06:45:01.899Z,1.10
2022-12-27T06:50:05.481Z,1.50
2022-12-27T06:55:09.996Z,2.07
2022-12-27T07:00:14.225Z,1.70
2022-12-27T07:05:17.372Z,1.27
2022-12-27T07:10:21.824Z,1.60
2022-12-27T07:15:24.819Z,2.47
2022-12-27T07:20:27.949Z,2.30
2022-12-27T07:25:33.404Z,1.63
2022-12-27T07:30:36.444Z,1.77
2022-12-27T07:35:44.835Z,1.50
2022-12-27T07:40:49.453Z,1.23
2022-12-27T07:45:52.576Z,1.23
2022-12-27T07:50:56.667Z,1.50
2022-12-27T07:56:01.035Z,0.90
2022-12-27T08:01:04.660Z,1.83
2022-12-27T08:06:08.704Z,1.30
2022-12-27T08:11:13.245Z,1.70
2022-12-27T08:16:18.156Z,1.90
2022-12-27T08:21:21.156Z,1.63
2022-12-27T08:26:25.473Z,1.43
2022-12-27T08:31:28.393Z,1.33
2022-12-27T08:41:55.829Z,1.43
2022-12-27T08:46:59.560Z,1.20
2022-12-27T08:52:02.465Z,1.20
2022-12-27T08:57:07.062Z,1.20
2022-12-27T09:02:11.088Z,1.23
2022-12-27T09:07:14.162Z,1.50
2022-12-27T09:12:19.447Z,1.53
2022-12-27T09:17:22.360Z,1.20
2022-12-27T09:22:25.245Z,1.37
2022-12-27T09:27:29.561Z,1.13
2022-12-27T09:32:32.511Z,1.50
2022-12-27T09:37:35.418Z,1.50
2022-12-27T09:42:53.463Z,1.37
2022-12-27T09:48:01.843Z,1.07
2022-12-27T09:53:08.005Z,1.40
2022-12-27T09:58:24.031Z,1.17
2022-12-27T10:03:28.240Z,1.43
2022-12-27T10:08:38.575Z,1.40
2022-12-27T10:13:47.572Z,2.23
2022-12-27T10:19:03.528Z,2.43
2022-12-27T10:24:14.726Z,1.50
2022-12-27T10:29:22.585Z,1.13
2022-12-27T10:34:25.520Z,1.53
2022-12-27T10:39:30.295Z,1.70
2022-12-27T10:44:35.809Z,2.00
2022-12-27T10:49:40.050Z,1.53
2022-12-27T10:54:52.368Z,1.50
2022-12-27T11:00:19.491Z,1.60
2022-12-27T11:05:24.305Z,1.50
2022-12-27T11:10:28.688Z,2.10
2022-12-27T11:15:34.891Z,1.63
2022-12-27T11:20:40.357Z,1.80
2022-12-27T11:25:53.561Z,2.30
2022-12-27T11:31:00.306Z,2.70
2022-12-27T11:36:03.277Z,2.10
2022-12-27T11:41:09.444Z,1.93
2022-12-27T11:46:21.740Z,3.43
2022-12-27T11:51:56.039Z,1.60
2022-12-27T11:57:12.286Z,2.33
2022-12-27T12:02:36.976Z,1.93
2022-12-27T12:07:52.238Z,2.07
2022-12-27T12:13:11.201Z,2.03
2022-12-27T12:18:28.868Z,2.47
2022-12-27T12:23:47.207Z,2.67
2022-12-27T12:29:19.073Z,2.53
2022-12-27T12:34:39.349Z,2.03
2022-12-27T12:40:02.481Z,2.07
2022-12-27T12:45:21.701Z,2.20
2022-12-27T12:50:37.595Z,2.37
2022-12-27T12:55:48.653Z,2.23
2022-12-27T13:01:04.600Z,3.97
2022-12-27T13:06:18.651Z,3.67
2022-12-27T13:11:41.247Z,2.70
2022-12-27T13:16:51.728Z,3.27
2022-12-27T13:22:03.142Z,3.40
2022-12-27T13:27:13.236Z,2.93
2022-12-27T13:32:23.134Z,2.90
2022-12-27T13:37:35.651Z,3.77
2022-12-27T13:43:00.109Z,3.87
2022-12-27T13:48:12.877Z,3.70
2022-12-27T13:53:41.360Z,3.07
2022-12-27T13:58:59.374Z,3.03
2022-12-27T14:04:16.584Z,3.13
2022-12-27T14:10:01.835Z,2.73
2022-12-27T14:15:08.802Z,2.53
2022-12-27T14:20:27.325Z,3.37
2022-12-27T14:26:04.425Z,2.37
2022-12-27T14:31:38.057Z,1.77
2022-12-27T14:37:12.694Z,2.80
2022-12-27T14:42:32.379Z,1.93
2022-12-27T14:47:59.777Z,2.83
2022-12-27T14:53:37.264Z,2.83
2022-12-27T14:58:50.980Z,1.90
2022-12-27T15:04:07.460Z,2.60
2022-12-27T15:09:14.199Z,3.67
2022-12-27T15:14:29.456Z,3.50
2022-12-27T15:19:49.980Z,3.30
2022-12-27T15:25:04.799Z,3.60
2022-12-27T15:30:22.088Z,2.70
2022-12-27T15:35:35.187Z,4.03
2022-12-27T15:40:51.901Z,3.13
2022-12-27T15:46:05.310Z,4.03
2022-12-27T15:51:15.456Z,2.90
2022-12-27T15:56:28.994Z,4.80
2022-12-27T16:07:04.145Z,6.23
2022-12-27T16:12:13.143Z,7.43
2022-12-27T16:17:33.592Z,6.70
2022-12-27T16:22:40.642Z,5.50
2022-12-27T16:27:44.051Z,6.10
2022-12-27T16:32:49.518Z,6.40
2022-12-27T16:37:55.691Z,7.10
2022-12-27T16:43:25.935Z,7.80
2022-12-27T16:48:37.439Z,5.83
2022-12-27T16:54:13.021Z,9.07
2022-12-27T16:59:53.710Z,4.80
2022-12-27T17:05:01.542Z,4.83
2022-12-27T17:10:49.398Z,5.20
2022-12-27T17:16:01.148Z,3.97
2022-12-27T17:21:07.507Z,5.43
2022-12-27T17:26:24.098Z,3.90
2022-12-27T17:31:33.203Z,3.37
2022-12-27T17:36:45.424Z,4.17
2022-12-27T17:42:11.595Z,4.17
2022-12-27T17:47:27.011Z,2.90
2022-12-27T17:52:47.267Z,5.03
2022-12-27T17:57:56.373Z,3.03
2022-12-27T18:03:03.776Z,3.90
2022-12-27T18:08:08.531Z,4.10
2022-12-27T18:13:17.485Z,2.83
2022-12-27T18:18:25.056Z,3.33
2022-12-27T18:23:28.441Z,3.20
2022-12-27T18:28:33.783Z,3.03
2022-12-27T18:33:41.918Z,3.07
2022-12-27T18:38:47.503Z,2.80
2022-12-27T18:43:53.548Z,2.93
2022-12-27T18:49:02.154Z,2.53
2022-12-27T18:54:22.539Z,2.80
2022-12-27T18:59:29.847Z,3.00
2022-12-27T19:04:34.827Z,2.40
2022-12-27T19:09:40.777Z,2.43
2022-12-27T19:14:45.736Z,2.93
2022-12-27T19:19:51.514Z,2.27
2022-12-27T19:24:59.931Z,2.20
2022-12-27T19:30:03.079Z,2.00
2022-12-27T19:35:08.589Z,2.63
2022-12-27T19:40:15.182Z,1.87
2022-12-27T19:45:21.776Z,2.07
2022-12-27T19:50:26.138Z,2.73
2022-12-27T19:55:29.130Z,3.07
2022-12-27T20:00:32.079Z,2.27
2022-12-27T20:06:11.350Z,2.93
2022-12-27T20:11:01.854Z,2.03
2022-12-27T20:16:05.483Z,2.57
2022-12-27T20:21:13.211Z,2.73
2022-12-27T20:26:19.937Z,4.20
2022-12-27T20:31:24.114Z,2.23
2022-12-27T20:36:28.582Z,2.77
2022-12-27T20:41:31.674Z,2.20
2022-12-27T20:46:34.769Z,2.57
2022-12-27T20:51:41.882Z,2.73
2022-12-27T20:56:44.951Z,2.73
2022-12-27T21:01:53.041Z,3.70
2022-12-27T21:07:01.060Z,2.10
2022-12-27T21:12:07.206Z,2.07
2022-12-27T21:17:10.224Z,2.13
2022-12-27T21:22:14.566Z,2.90
2022-12-27T21:27:17.548Z,3.10
2022-12-27T21:32:20.543Z,2.40
2022-12-27T21:37:25.015Z,2.37
2022-12-27T21:42:27.979Z,2.30
2022-12-27T21:47:31.686Z,2.23
2022-12-27T21:52:36.044Z,2.30
2022-12-27T21:57:39.020Z,2.20
2022-12-27T22:02:42.080Z,2.00
2022-12-27T22:07:46.523Z,3.07
2022-12-27T22:12:49.493Z,2.30
2022-12-27T22:17:52.427Z,2.33
2022-12-27T22:22:56.786Z,2.10
2022-12-27T22:27:59.763Z,2.63
2022-12-27T22:33:04.906Z,2.13
2022-12-27T22:38:12.209Z,2.07
2022-12-27T22:43:15.350Z,2.73
2022-12-27T22:48:18.305Z,2.50
2022-12-27T22:53:22.654Z,2.63
2022-12-27T22:58:26.429Z,2.30
2022-12-27T23:03:29.401Z,2.43
2022-12-27T23:08:33.747Z,3.40
2022-12-27T23:13:36.604Z,2.50
2022-12-27T23:18:40.535Z,2.57
2022-12-27T23:23:45.078Z,2.97
2022-12-27T23:28:48.660Z,2.83
2022-12-27T23:33:52.812Z,2.77
2022-12-27T23:38:57.172Z,3.97
2022-12-27T23:44:03.570Z,3.00
2022-12-27T23:49:06.590Z,3.33
2022-12-27T23:54:10.867Z,2.33
2022-12-27T23:59:13.868Z,3.10
